createdAt,value
2023-05-16T00:00:49.005Z,4.65
2023-05-16T00:05:50.977Z,5.00
2023-05-16T00:10:52.726Z,7.22
2023-05-16T00:15:56.155Z,7.40
2023-05-16T00:20:58.183Z,7.80
2023-05-16T00:25:59.931Z,6.53
2023-05-16T00:31:01.687Z,6.95
2023-05-16T00:36:03.484Z,5.53
2023-05-16T00:41:05.666Z,4.22
2023-05-16T00:46:07.560Z,6.05
2023-05-16T00:51:11.179Z,5.00
2023-05-16T00:56:13.010Z,5.47
2023-05-16T01:01:14.987Z,5.70
2023-05-16T01:06:16.954Z,6.22
2023-05-16T01:11:31.232Z,5.45
2023-05-16T01:16:45.766Z,5.78
2023-05-16T01:26:51.671Z,5.80
2023-05-16T01:31:53.553Z,6.10
2023-05-16T01:37:16.286Z,5.53
2023-05-16T01:42:21.491Z,7.72
2023-05-16T01:47:26.889Z,6.90
2023-05-16T01:52:36.506Z,6.43
2023-05-16T01:57:40.254Z,6.68
2023-05-16T02:02:42.093Z,7.20
2023-05-16T02:07:44.682Z,7.70
2023-05-16T02:12:46.455Z,8.20
2023-05-16T02:17:48.529Z,6.18
2023-05-16T02:22:51.116Z,6.53
2023-05-16T02:27:52.919Z,6.05
2023-05-16T02:32:54.804Z,6.20
2023-05-16T02:37:57.115Z,6.38
2023-05-16T02:42:59.818Z,6.05
2023-05-16T02:48:01.621Z,6.70
2023-05-16T02:53:03.490Z,5.70
2023-05-16T02:58:05.372Z,5.97
2023-05-16T03:03:07.545Z,7.97
2023-05-16T03:08:09.878Z,6.25
2023-05-16T03:13:11.722Z,6.78
2023-05-16T03:18:13.586Z,6.93
2023-05-16T03:23:15.459Z,7.32
2023-05-16T03:28:18.204Z,7.15
2023-05-16T03:33:20.245Z,7.03
2023-05-16T03:38:22.059Z,7.20
2023-05-16T03:43:23.761Z,7.63
2023-05-16T03:48:25.580Z,6.18
2023-05-16T03:53:27.612Z,6.53
2023-05-16T03:58:29.435Z,6.47
2023-05-16T04:03:31.418Z,6.40
2023-05-16T04:08:33.373Z,7.57
2023-05-16T04:13:35.148Z,6.47
2023-05-16T04:18:36.945Z,6.47
2023-05-16T04:23:38.713Z,7.35
2023-05-16T04:28:41.685Z,7.05
2023-05-16T04:33:43.523Z,6.47
2023-05-16T04:38:47.164Z,7.63
2023-05-16T04:43:49.019Z,7.97
2023-05-16T04:48:52.104Z,7.70
2023-05-16T04:53:53.908Z,7.65
2023-05-16T04:58:55.786Z,7.82
2023-05-16T05:03:57.556Z,9.02
2023-05-16T05:08:59.432Z,9.27
2023-05-16T05:14:02.327Z,7.30
2023-05-16T05:19:04.664Z,7.00
2023-05-16T05:24:06.703Z,7.28
2023-05-16T05:29:08.858Z,6.88
2023-05-16T05:34:10.757Z,9.25
2023-05-16T05:39:12.659Z,7.63
2023-05-16T05:44:14.412Z,8.27
2023-05-16T05:49:16.692Z,9.43
2023-05-16T05:54:19.636Z,9.32
2023-05-16T05:59:21.542Z,11.30
2023-05-16T06:04:23.329Z,11.05
2023-05-16T06:09:25.060Z,10.60
2023-05-16T06:14:26.805Z,11.05
2023-05-16T06:19:28.595Z,11.70
2023-05-16T06:24:30.576Z,11.32
2023-05-16T06:29:32.491Z,11.13
2023-05-16T06:34:34.259Z,11.35
2023-05-16T06:39:36.011Z,11.23
2023-05-16T06:44:37.785Z,11.30
2023-05-16T06:49:39.553Z,11.45
2023-05-16T06:54:41.347Z,10.63
2023-05-16T06:59:43.549Z,10.50
2023-05-16T07:04:45.654Z,9.98
2023-05-16T07:09:47.433Z,9.00
2023-05-16T07:14:49.222Z,8.73
2023-05-16T07:19:51.091Z,8.95
2023-05-16T07:24:57.074Z,9.55
2023-05-16T07:29:58.962Z,8.70
2023-05-16T07:35:00.732Z,8.10
2023-05-16T07:40:03.816Z,7.78
2023-05-16T07:45:07.686Z,6.85
2023-05-16T07:50:10.667Z,6.80
2023-05-16T07:55:12.563Z,7.22
2023-05-16T08:00:15.119Z,6.90
2023-05-16T08:05:17.216Z,7.32
2023-05-16T08:10:19.115Z,6.88
2023-05-16T08:15:21.652Z,7.18
2023-05-16T08:20:23.475Z,6.47
2023-05-16T08:25:25.694Z,6.28
2023-05-16T08:30:28.301Z,6.47
2023-05-16T08:35:30.350Z,6.80
2023-05-16T08:40:32.163Z,5.78
2023-05-16T08:45:34.200Z,5.82
2023-05-16T08:50:36.487Z,5.25
2023-05-16T08:55:39.521Z,5.80
2023-05-16T09:00:41.812Z,6.05
2023-05-16T09:05:43.738Z,6.82
2023-05-16T09:10:45.549Z,6.72
2023-05-16T09:16:17.345Z,6.40
2023-05-16T09:21:19.887Z,6.18
2023-05-16T09:26:22.740Z,5.93
2023-05-16T09:31:37.909Z,6.43
2023-05-16T09:36:42.112Z,6.80
2023-05-16T09:41:45.521Z,6.38
2023-05-16T09:46:47.387Z,5.55
2023-05-16T09:51:49.287Z,4.47
2023-05-16T09:56:52.754Z,3.40
2023-05-16T10:01:57.340Z,3.23
2023-05-16T10:07:03.342Z,2.88
2023-05-16T10:12:08.568Z,2.63
2023-05-16T10:17:14.362Z,2.70
2023-05-16T10:22:17.061Z,2.85
2023-05-16T10:27:21.169Z,2.40
2023-05-16T10:32:25.503Z,2.17
2023-05-16T10:37:28.104Z,2.33
2023-05-16T10:42:32.814Z,1.70
2023-05-16T10:47:34.827Z,1.52
2023-05-16T10:52:36.665Z,1.20
2023-05-16T10:57:39.267Z,1.45
2023-05-16T11:02:41.839Z,1.15
2023-05-16T11:07:44.289Z,1.33
2023-05-16T11:12:51.294Z,1.40
2023-05-16T11:18:06.966Z,1.40
2023-05-16T11:23:21.796Z,1.20
2023-05-16T11:28:27.737Z,1.23
2023-05-16T11:33:34.318Z,1.48
2023-05-16T11:38:37.072Z,1.60
2023-05-16T11:43:44.776Z,1.15
2023-05-16T11:48:47.362Z,1.25
2023-05-16T11:53:53.243Z,1.48
2023-05-16T11:58:55.157Z,1.40
2023-05-16T12:03:58.076Z,1.25
2023-05-16T12:09:03.038Z,1.52
2023-05-16T12:14:10.253Z,1.80
2023-05-16T12:19:12.509Z,1.90
2023-05-16T12:24:14.616Z,1.60
2023-05-16T12:29:16.528Z,2.00
2023-05-16T12:34:21.314Z,1.80
2023-05-16T12:39:23.376Z,1.80
2023-05-16T12:44:30.231Z,1.60
2023-05-16T12:49:33.423Z,1.52
2023-05-16T12:54:35.381Z,1.80
2023-05-16T12:59:37.411Z,2.00
2023-05-16T13:04:39.170Z,1.95
2023-05-16T13:09:41.825Z,1.48
2023-05-16T13:14:44.046Z,1.55
2023-05-16T13:19:48.253Z,1.90
2023-05-16T13:24:50.757Z,1.73
2023-05-16T13:29:52.491Z,1.80
2023-05-16T13:34:55.147Z,1.38
2023-05-16T13:39:57.094Z,1.10
2023-05-16T13:44:58.884Z,1.20
2023-05-16T13:50:06.016Z,1.30
2023-05-16T13:55:08.593Z,1.20
2023-05-16T14:05:18.507Z,1.10
2023-05-16T14:10:20.313Z,1.30
2023-05-16T14:15:22.196Z,1.20
2023-05-16T14:20:23.984Z,1.30
2023-05-16T14:25:26.027Z,1.30
2023-05-16T14:30:28.202Z,1.00
2023-05-16T14:35:31.269Z,1.40
2023-05-16T14:40:34.238Z,1.00
2023-05-16T14:45:37.079Z,1.30
2023-05-16T14:50:38.868Z,1.70
2023-05-16T14:55:40.872Z,1.30
2023-05-16T15:00:42.641Z,2.08
2023-05-16T15:05:45.190Z,1.63
2023-05-16T15:10:47.088Z,1.38
2023-05-16T15:15:48.932Z,1.30
2023-05-16T15:20:53.078Z,1.23
2023-05-16T15:30:57.137Z,1.33
2023-05-16T15:35:59.007Z,1.20
2023-05-16T15:41:16.531Z,1.15
2023-05-16T15:46:22.715Z,1.60
2023-05-16T15:51:24.598Z,2.25
2023-05-16T15:56:26.453Z,1.83
2023-05-16T16:01:28.309Z,1.42
2023-05-16T16:06:30.205Z,1.35
2023-05-16T16:11:32.133Z,1.13
2023-05-16T16:16:34.158Z,1.05
2023-05-16T16:21:37.222Z,1.27
2023-05-16T16:26:39.015Z,0.70
2023-05-16T16:31:40.941Z,1.00
2023-05-16T16:36:42.723Z,1.02
2023-05-16T16:41:44.540Z,0.82
2023-05-16T16:46:46.520Z,0.90
2023-05-16T16:51:49.972Z,1.02
2023-05-16T16:56:52.537Z,0.57
2023-05-16T17:01:54.456Z,0.80
2023-05-16T17:06:56.510Z,0.93
2023-05-16T17:11:58.315Z,0.70
2023-05-16T17:17:00.140Z,1.08
2023-05-16T17:22:02.328Z,1.00
2023-05-16T17:27:04.798Z,0.93
2023-05-16T17:32:06.949Z,1.10
2023-05-16T17:37:10.781Z,1.70
2023-05-16T17:42:12.744Z,1.60
2023-05-16T17:47:14.740Z,1.45
2023-05-16T17:52:16.583Z,1.10
2023-05-16T17:57:18.761Z,1.42
2023-05-16T18:02:20.648Z,1.60
2023-05-16T18:07:22.734Z,1.65
2023-05-16T18:12:24.847Z,1.77
2023-05-16T18:17:26.595Z,1.73
2023-05-16T18:22:28.361Z,2.08
2023-05-16T18:27:30.146Z,2.70
2023-05-16T18:32:32.309Z,2.03
2023-05-16T18:37:34.359Z,1.50
2023-05-16T18:42:36.188Z,2.17
2023-05-16T18:47:38.142Z,1.10
2023-05-16T18:52:40.690Z,1.20
2023-05-16T18:57:44.008Z,1.08
2023-05-16T19:02:46.419Z,1.10
2023-05-16T19:07:48.372Z,1.10
2023-05-16T19:12:50.334Z,1.00
2023-05-16T19:17:52.237Z,1.25
2023-05-16T19:22:54.009Z,0.90
2023-05-16T19:27:55.807Z,1.00
2023-05-16T19:32:57.688Z,0.77
2023-05-16T19:38:00.066Z,0.88
2023-05-16T19:43:01.925Z,1.35
2023-05-16T19:48:04.195Z,1.00
2023-05-16T19:53:06.134Z,0.80
2023-05-16T19:58:08.176Z,0.90
2023-05-16T20:03:10.047Z,0.98
2023-05-16T20:08:12.234Z,0.77
2023-05-16T20:13:18.282Z,0.70
2023-05-16T20:18:20.235Z,0.88
2023-05-16T20:23:22.052Z,1.30
2023-05-16T20:28:23.814Z,1.10
2023-05-16T20:33:25.867Z,1.10
2023-05-16T20:38:27.881Z,1.67
2023-05-16T20:43:29.664Z,0.60
2023-05-16T20:48:31.498Z,0.70
2023-05-16T20:53:33.375Z,0.63
2023-05-16T20:58:35.249Z,0.60
2023-05-16T21:03:37.079Z,0.88
2023-05-16T21:08:39.245Z,0.50
2023-05-16T21:13:41.032Z,0.82
2023-05-16T21:18:43.020Z,0.80
2023-05-16T21:23:45.036Z,0.65
2023-05-16T21:33:53.271Z,0.70
2023-05-16T21:38:55.061Z,0.70
2023-05-16T21:43:56.818Z,0.70
2023-05-16T21:48:59.741Z,1.05
2023-05-16T21:54:03.116Z,1.00
2023-05-16T21:59:05.056Z,0.80
2023-05-16T22:04:06.990Z,0.80
2023-05-16T22:09:08.994Z,0.70
2023-05-16T22:14:10.946Z,0.50
2023-05-16T22:19:12.842Z,0.70
2023-05-16T22:24:14.651Z,0.90
2023-05-16T22:29:16.444Z,1.10
2023-05-16T22:34:18.324Z,1.48
2023-05-16T22:39:20.099Z,1.30
2023-05-16T22:44:22.028Z,0.93
2023-05-16T22:49:24.166Z,0.80
2023-05-16T22:54:26.014Z,1.33
2023-05-16T22:59:27.791Z,1.02
2023-05-16T23:04:29.667Z,1.00
2023-05-16T23:09:31.694Z,0.82
2023-05-16T23:14:33.494Z,0.80
2023-05-16T23:19:35.510Z,0.77
2023-05-16T23:24:37.385Z,0.80
2023-05-16T23:29:39.156Z,0.85
2023-05-16T23:34:41.145Z,1.13
2023-05-16T23:39:43.225Z,0.85
2023-05-16T23:44:45.105Z,0.60
2023-05-16T23:49:46.865Z,0.93
2023-05-16T23:54:48.895Z,0.60
2023-05-16T23:59:50.618Z,0.73
